Kezdőlap
METAR-TAF:

METAR-TAF

Repülőterek :

Windom Municipal Airport

Windom, Minnesota, Amerikai Egyesült Államok

földrajzi szélesség: 43-54-48N, földrajzi hosszúság: 095-06-34W, magasság: 430 m

Jelenlegi meteorológiai megfigyelések

A jelentés 28 perccel ezelõtt készült, 18:35 UTC
Északnyugati szél 3 kt
Hőmérséklet 30°C
Páratartalom 25%
Légköri nyomás 1012 hPa
Látótávolság: 16.1 km
Derült ég

METAR: KMWM 181835Z AUTO 32003KT 10SM CLR 30/08 A2989 RMK AO2

Idő: 14:03 (19:03 UTC)


TAF: hiányzik

Meteorológiai megfigyelések és előrejelzések több, mint 4000 repülőtéren (METAR és TAF jelentéseket).

A térképen piros és sárga pontok jelzik az elérhető meteorológiai állomásokat.

Mozgassa az egeret a pont fölött, hogy megjelenjen az állomás neve.

Azután kattintson az időjárási megfigyelések és előrejelzések megtekintéséhez.

A térkép megváltoztatása: kattintson a fekete keresztel jelölt zöld gombra ráközelítéshez, a vonallal jelölt zöld gombra távolításhoz, vagy a zöld nyilakra a szomszédos térképek eléréséhez.


METAR-TAF: